Time;durP1;ratioP1;P1;durP2;ratioP2;P2;SDS_P1;SDS_P2;PMS_P1;PMS_P2;Temp;Humidity;BMP_temperature;BMP_pressure;BME280_temperature;BME280_humidity;BME280_pressure;Samples;Min_cycle;Max_cycle;Signal;HPM_P1;HPM_P2
2024/02/22 00:01:11;0.00;0.00;0.62;0.00;0.00;0.62;2.70;1.40;;;23.10;26.20;;;;;;2259707;61;20372;-70
2024/02/22 00:03:55;0.00;0.00;0.62;0.00;0.00;0.62;2.50;1.40;;;23.10;26.10;;;;;;2256325;61;20361;-69
2024/02/22 00:06:40;0.00;0.00;0.62;0.00;0.00;0.62;2.53;1.20;;;23.10;26.10;;;;;;2259584;61;20384;-69
2024/02/22 00:09:25;0.00;0.00;0.62;0.00;0.00;0.62;2.13;1.27;;;23.10;26.10;;;;;;2259690;61;20361;-70
2024/02/22 00:12:13;0.00;0.00;0.62;0.00;0.00;0.62;2.63;1.40;;;23.10;26.20;;;;;;2261560;61;20443;-70
2024/02/22 00:14:58;0.00;0.00;0.62;0.00;0.00;0.62;1.80;1.33;;;23.10;26.20;;;;;;2263857;61;20421;-70
2024/02/22 00:17:43;0.00;0.00;0.62;0.00;0.00;0.62;2.43;1.57;;;23.10;26.20;;;;;;2263435;61;20367;-70
2024/02/22 00:20:28;0.00;0.00;0.62;0.00;0.00;0.62;3.00;1.40;;;23.10;26.20;;;;;;2264030;61;20352;-70
2024/02/22 00:23:12;0.00;0.00;0.62;0.00;0.00;0.62;2.20;1.30;;;23.10;26.20;;;;;;2263662;61;20942;-70
2024/02/22 00:25:57;0.00;0.00;0.62;0.00;0.00;0.62;2.53;1.47;;;23.10;26.20;;;;;;2263303;61;20460;-69
2024/02/22 00:28:43;0.00;0.00;0.62;0.00;0.00;0.62;1.60;1.10;;;23.10;26.20;;;;;;2263744;61;20410;-70
2024/02/22 00:31:27;0.00;0.00;0.62;0.00;0.00;0.62;2.30;1.33;;;23.10;26.20;;;;;;2263606;61;20392;-69
2024/02/22 00:34:12;0.00;0.00;0.62;0.00;0.00;0.62;1.80;1.17;;;23.00;26.60;;;;;;2263502;61;20363;-69
2024/02/22 00:36:57;0.00;0.00;0.62;0.00;0.00;0.62;1.90;1.30;;;23.00;26.10;;;;;;2260436;61;20443;-69
2024/02/22 00:39:46;0.00;0.00;0.62;0.00;0.00;0.62;1.93;1.40;;;23.00;26.10;;;;;;2263459;61;20410;-70
2024/02/22 00:42:31;0.00;0.00;0.62;0.00;0.00;0.62;1.53;1.00;;;23.00;26.10;;;;;;2263679;61;20398;-69
2024/02/22 00:45:17;0.00;0.00;0.62;0.00;0.00;0.62;2.70;1.53;;;23.00;26.10;;;;;;2263851;61;20429;-70
2024/02/22 00:48:03;0.00;0.00;0.62;0.00;0.00;0.62;1.80;1.13;;;23.00;26.10;;;;;;2259872;61;20407;-69
2024/02/22 00:50:48;0.00;0.00;0.62;0.00;0.00;0.62;2.07;1.20;;;23.10;26.20;;;;;;2259464;61;20365;-69
2024/02/22 00:53:33;0.00;0.00;0.62;0.00;0.00;0.62;2.83;1.10;;;23.00;26.20;;;;;;2259481;61;20369;-69
2024/02/22 00:56:18;0.00;0.00;0.62;0.00;0.00;0.62;2.17;1.73;;;23.00;26.20;;;;;;2259162;61;20957;-70
2024/02/22 00:59:03;0.00;0.00;0.62;0.00;0.00;0.62;1.40;0.93;;;23.00;26.20;;;;;;2259213;61;20880;-69
2024/02/22 01:01:49;0.00;0.00;0.62;0.00;0.00;0.62;1.63;1.00;;;23.00;26.20;;;;;;2259347;61;20475;-70
2024/02/22 01:04:34;0.00;0.00;0.62;0.00;0.00;0.62;2.10;1.17;;;23.00;26.20;;;;;;2259464;61;20373;-69
2024/02/22 01:07:20;0.00;0.00;0.62;0.00;0.00;0.62;2.40;1.13;;;23.00;26.20;;;;;;2259354;61;20411;-69
2024/02/22 01:10:08;0.00;0.00;0.62;0.00;0.00;0.62;2.40;1.40;;;23.00;26.20;;;;;;2259504;61;20512;-69
2024/02/22 01:12:53;0.00;0.00;0.62;0.00;0.00;0.62;2.00;1.30;;;23.00;26.30;;;;;;2263010;61;20887;-70
2024/02/22 01:15:38;0.00;0.00;0.62;0.00;0.00;0.62;1.87;0.90;;;23.00;26.30;;;;;;2263387;61;20991;-70
2024/02/22 01:18:24;0.00;0.00;0.62;0.00;0.00;0.62;1.90;1.20;;;23.00;26.30;;;;;;2263386;61;20376;-69
2024/02/22 01:21:09;0.00;0.00;0.62;0.00;0.00;0.62;2.00;1.23;;;23.00;26.30;;;;;;2263666;61;20384;-70
2024/02/22 01:23:53;0.00;0.00;0.62;0.00;0.00;0.62;2.30;1.20;;;23.00;26.30;;;;;;2263269;61;20391;-70
2024/02/22 01:26:38;0.00;0.00;0.62;0.00;0.00;0.62;1.50;0.90;;;23.00;26.30;;;;;;2263191;61;20418;-70
2024/02/22 01:29:22;0.00;0.00;0.62;0.00;0.00;0.62;2.07;1.10;;;23.00;26.30;;;;;;2263579;61;20872;-69
2024/02/22 01:32:07;0.00;0.00;0.62;0.00;0.00;0.62;1.70;0.90;;;23.00;26.30;;;;;;2259836;61;20387;-69
2024/02/22 01:34:53;0.00;0.00;0.62;0.00;0.00;0.62;1.80;1.00;;;23.00;26.30;;;;;;2263538;61;20452;-69
2024/02/22 01:37:37;0.00;0.00;0.62;0.00;0.00;0.62;2.00;0.93;;;23.00;26.30;;;;;;2263260;61;20895;-69
2024/02/22 01:40:22;0.00;0.00;0.62;0.00;0.00;0.62;2.73;1.10;;;23.00;26.30;;;;;;2260163;61;20828;-69
2024/02/22 01:43:07;0.00;0.00;0.62;0.00;0.00;0.62;1.50;0.97;;;23.00;26.90;;;;;;2263777;61;20459;-69
2024/02/22 01:45:52;0.00;0.00;0.62;0.00;0.00;0.62;1.63;1.00;;;23.00;26.30;;;;;;2262962;61;20429;-68
2024/02/22 01:48:37;0.00;0.00;0.62;0.00;0.00;0.62;2.00;1.10;;;23.00;26.30;;;;;;2547123;45;20448;-69
2024/02/22 01:51:24;0.00;0.00;0.62;0.00;0.00;0.62;1.77;1.00;;;23.00;26.40;;;;;;2255533;61;20446;-69
2024/02/22 01:54:08;0.00;0.00;0.62;0.00;0.00;0.62;2.13;1.50;;;23.00;26.40;;;;;;2255086;61;20377;-69
2024/02/22 01:56:54;0.00;0.00;0.62;0.00;0.00;0.62;1.77;1.30;;;23.00;26.40;;;;;;2255313;61;20759;-69
2024/02/22 01:59:38;0.00;0.00;0.62;0.00;0.00;0.62;1.67;1.10;;;23.00;26.40;;;;;;2255257;61;20370;-69
2024/02/22 02:02:24;0.00;0.00;0.62;0.00;0.00;0.62;2.00;1.07;;;23.00;26.40;;;;;;2254942;61;20806;-68
2024/02/22 02:05:08;0.00;0.00;0.62;0.00;0.00;0.62;2.13;1.30;;;23.00;26.40;;;;;;2255434;61;20462;-69
2024/02/22 02:07:54;0.00;0.00;0.62;0.00;0.00;0.62;2.23;0.93;;;23.00;26.40;;;;;;2254990;61;20362;-69
2024/02/22 02:10:39;0.00;0.00;0.62;0.00;0.00;0.62;2.20;1.20;;;23.00;26.40;;;;;;2255244;61;20913;-68
2024/02/22 02:13:23;0.00;0.00;0.62;0.00;0.00;0.62;1.50;0.90;;;23.00;26.50;;;;;;2259363;61;20408;-69
2024/02/22 02:16:08;0.00;0.00;0.62;0.00;0.00;0.62;1.60;1.00;;;23.00;26.40;;;;;;2258745;61;20884;-68
2024/02/22 02:18:54;0.00;0.00;0.62;0.00;0.00;0.62;1.60;0.97;;;23.00;26.50;;;;;;2259426;61;20476;-68
2024/02/22 02:21:49;0.00;0.00;0.62;0.00;0.00;0.62;2.53;1.37;;;23.00;26.50;;;;;;2259309;61;20443;-68
2024/02/22 02:24:41;0.00;0.00;0.62;0.00;0.00;0.62;2.60;1.00;;;23.00;26.50;;;;;;2259108;61;20346;-68
2024/02/22 02:27:27;0.00;0.00;0.62;0.00;0.00;0.62;1.70;0.90;;;23.00;26.50;;;;;;2259390;61;20364;-68
2024/02/22 02:30:13;0.00;0.00;0.62;0.00;0.00;0.62;1.83;0.93;;;23.00;26.50;;;;;;2258548;61;20407;-69
2024/02/22 02:32:57;0.00;0.00;0.62;0.00;0.00;0.62;1.90;0.80;;;23.00;26.50;;;;;;2258926;61;20393;-68
2024/02/22 02:35:42;0.00;0.00;0.62;0.00;0.00;0.62;1.97;0.90;;;23.00;26.50;;;;;;2255323;61;20365;-70
2024/02/22 02:38:26;0.00;0.00;0.62;0.00;0.00;0.62;1.70;0.83;;;23.00;26.50;;;;;;2321694;53;20407;-69
2024/02/22 02:41:11;0.00;0.00;0.62;0.00;0.00;0.62;1.80;0.80;;;23.00;26.50;;;;;;2257324;61;20431;-69
2024/02/22 02:43:57;0.00;0.00;0.62;0.00;0.00;0.62;1.40;0.83;;;23.00;26.50;;;;;;2260434;61;20364;-69
2024/02/22 02:46:41;0.00;0.00;0.62;0.00;0.00;0.62;2.17;0.90;;;23.00;26.50;;;;;;2259974;61;20384;-70
2024/02/22 02:49:26;0.00;0.00;0.62;0.00;0.00;0.62;1.87;0.80;;;23.00;26.60;;;;;;2260755;61;20364;-69
2024/02/22 02:52:11;0.00;0.00;0.62;0.00;0.00;0.62;1.90;0.87;;;22.90;26.50;;;;;;2260427;61;20467;-72
2024/02/22 02:54:55;0.00;0.00;0.62;0.00;0.00;0.62;1.57;0.80;;;23.00;26.50;;;;;;2257234;61;20364;-69
2024/02/22 02:57:40;0.00;0.00;0.62;0.00;0.00;0.62;1.50;0.90;;;23.00;26.50;;;;;;2260820;61;20396;-68
2024/02/22 03:00:26;0.00;0.00;0.62;0.00;0.00;0.62;1.50;0.70;;;22.90;26.50;;;;;;2260461;61;20783;-70
2024/02/22 03:03:11;0.00;0.00;0.62;0.00;0.00;0.62;1.50;0.80;;;23.00;26.50;;;;;;2260346;61;20428;-69
2024/02/22 03:05:56;0.00;0.00;0.62;0.00;0.00;0.62;1.80;1.20;;;23.00;26.50;;;;;;2260400;61;20394;-70
2024/02/22 03:08:41;0.00;0.00;0.62;0.00;0.00;0.62;1.70;1.10;;;23.00;26.60;;;;;;2257174;61;20403;-70
2024/02/22 03:11:25;0.00;0.00;0.62;0.00;0.00;0.62;1.43;0.70;;;23.00;26.60;;;;;;2261386;61;20796;-70
2024/02/22 03:14:10;0.00;0.00;0.62;0.00;0.00;0.62;1.63;0.80;;;22.90;27.00;;;;;;2261128;61;20367;-70
2024/02/22 03:16:56;0.00;0.00;0.62;0.00;0.00;0.62;1.30;0.80;;;22.90;26.50;;;;;;2264262;61;20395;-70
2024/02/22 03:19:40;0.00;0.00;0.62;0.00;0.00;0.62;1.87;0.90;;;23.00;26.60;;;;;;2264462;61;20403;-70
2024/02/22 03:22:25;0.00;0.00;0.62;0.00;0.00;0.62;1.30;0.80;;;23.00;26.60;;;;;;2264340;61;20445;-69
2024/02/22 03:25:10;0.00;0.00;0.62;0.00;0.00;0.62;2.00;0.83;;;22.90;27.00;;;;;;2264312;61;20418;-69
2024/02/22 03:27:58;0.00;0.00;0.62;0.00;0.00;0.62;1.70;0.87;;;23.00;26.50;;;;;;2264644;61;20410;-69
2024/02/22 03:30:43;0.00;0.00;0.62;0.00;0.00;0.62;1.47;0.80;;;23.00;26.60;;;;;;2260595;61;20371;-70
2024/02/22 03:33:29;0.00;0.00;0.62;0.00;0.00;0.62;1.53;0.80;;;22.90;26.50;;;;;;2256398;61;20389;-70
2024/02/22 03:36:13;0.00;0.00;0.62;0.00;0.00;0.62;1.90;1.00;;;23.00;26.60;;;;;;2256093;61;20385;-70
2024/02/22 03:38:58;0.00;0.00;0.62;0.00;0.00;0.62;1.30;0.80;;;22.90;26.50;;;;;;2256445;61;20780;-69
2024/02/22 03:41:43;0.00;0.00;0.62;0.00;0.00;0.62;1.50;0.90;;;22.90;26.50;;;;;;2256369;61;20393;-69
2024/02/22 03:44:27;0.00;0.00;0.62;0.00;0.00;0.62;1.50;0.80;;;22.90;26.50;;;;;;2256245;61;20798;-69
2024/02/22 03:47:12;0.00;0.00;0.62;0.00;0.00;0.62;1.40;0.80;;;22.90;26.60;;;;;;2258916;61;20399;-69
2024/02/22 03:49:59;0.00;0.00;0.62;0.00;0.00;0.62;1.97;0.90;;;22.90;26.50;;;;;;2263964;61;20363;-69
2024/02/22 03:52:44;0.00;0.00;0.62;0.00;0.00;0.62;1.90;0.90;;;23.00;26.60;;;;;;2263421;61;20391;-69
2024/02/22 03:55:30;0.00;0.00;0.62;0.00;0.00;0.62;1.90;0.80;;;22.90;26.50;;;;;;2264098;61;20399;-70
2024/02/22 03:58:15;0.00;0.00;0.62;0.00;0.00;0.62;1.60;0.90;;;22.90;26.60;;;;;;2263534;61;20359;-70
2024/02/22 04:00:59;0.00;0.00;0.62;0.00;0.00;0.62;1.60;0.80;;;22.90;26.50;;;;;;2263576;61;20359;-70
2024/02/22 04:03:44;0.00;0.00;0.62;0.00;0.00;0.62;1.40;0.80;;;22.90;26.60;;;;;;2263677;61;20453;-70
2024/02/22 04:06:30;0.00;0.00;0.62;0.00;0.00;0.62;1.53;0.80;;;22.90;26.60;;;;;;2263290;61;20958;-70
2024/02/22 04:09:14;0.00;0.00;0.62;0.00;0.00;0.62;1.30;0.70;;;23.00;26.70;;;;;;2263442;61;20422;-69
2024/02/22 04:11:59;0.00;0.00;0.62;0.00;0.00;0.62;1.60;0.93;;;22.90;26.60;;;;;;2261961;61;20401;-70
2024/02/22 04:14:43;0.00;0.00;0.62;0.00;0.00;0.62;1.77;0.90;;;22.90;26.80;;;;;;2259278;61;20495;-70
2024/02/22 04:17:28;0.00;0.00;0.62;0.00;0.00;0.62;1.40;0.80;;;22.90;26.60;;;;;;2259616;61;20412;-69
2024/02/22 04:20:13;0.00;0.00;0.62;0.00;0.00;0.62;1.60;1.00;;;22.90;26.60;;;;;;2259637;61;20364;-69
2024/02/22 04:22:59;0.00;0.00;0.62;0.00;0.00;0.62;1.30;0.70;;;22.90;26.60;;;;;;2259409;61;20439;-69
2024/02/22 04:25:45;0.00;0.00;0.62;0.00;0.00;0.62;1.50;0.87;;;22.90;26.60;;;;;;2259543;61;20434;-69
2024/02/22 04:28:30;0.00;0.00;0.62;0.00;0.00;0.62;1.37;0.70;;;22.90;26.60;;;;;;2259608;61;20895;-70
2024/02/22 04:31:14;0.00;0.00;0.62;0.00;0.00;0.62;1.30;0.60;;;22.90;26.60;;;;;;2259445;61;21049;-69
2024/02/22 04:33:59;0.00;0.00;0.62;0.00;0.00;0.62;1.43;0.80;;;22.90;26.60;;;;;;2259669;61;20899;-70
2024/02/22 04:36:44;0.00;0.00;0.62;0.00;0.00;0.62;1.60;0.73;;;22.90;26.60;;;;;;2259373;61;20411;-69
2024/02/22 04:39:30;0.00;0.00;0.62;0.00;0.00;0.62;1.30;0.70;;;22.90;26.60;;;;;;2259742;61;20552;-69
2024/02/22 04:42:15;0.00;0.00;0.62;0.00;0.00;0.62;2.10;0.80;;;22.90;26.60;;;;;;2259646;61;20794;-71
2024/02/22 04:45:04;0.00;0.00;0.62;0.00;0.00;0.62;1.30;0.70;;;22.90;26.60;;;;;;2259128;61;20423;-69
2024/02/22 04:47:50;0.00;0.00;0.62;0.00;0.00;0.62;1.20;0.60;;;22.90;26.60;;;;;;2262436;61;20988;-69
2024/02/22 04:50:35;0.00;0.00;0.62;0.00;0.00;0.62;1.50;0.90;;;22.90;26.70;;;;;;2263625;61;20368;-69
2024/02/22 04:53:20;0.00;0.00;0.62;0.00;0.00;0.62;1.40;0.80;;;22.90;26.70;;;;;;2263441;61;20443;-69
2024/02/22 04:56:07;0.00;0.00;0.62;0.00;0.00;0.62;1.30;0.70;;;22.90;26.70;;;;;;2263587;61;20880;-69
2024/02/22 04:58:51;0.00;0.00;0.62;0.00;0.00;0.62;1.40;0.80;;;22.90;26.70;;;;;;2263331;61;20368;-69
2024/02/22 05:01:37;0.00;0.00;0.62;0.00;0.00;0.62;1.60;0.83;;;22.90;26.70;;;;;;2263720;61;20442;-69
2024/02/22 05:04:22;0.00;0.00;0.62;0.00;0.00;0.62;1.40;0.70;;;22.90;26.70;;;;;;2263514;61;20832;-69
2024/02/22 05:07:08;0.00;0.00;0.62;0.00;0.00;0.62;1.60;0.80;;;22.90;26.70;;;;;;2263153;61;20395;-69
2024/02/22 05:09:52;0.00;0.00;0.62;0.00;0.00;0.62;1.20;0.60;;;22.90;26.70;;;;;;2263589;61;20359;-69
2024/02/22 05:12:40;0.00;0.00;0.62;0.00;0.00;0.62;1.70;0.90;;;22.90;26.70;;;;;;2260496;61;21025;-69
2024/02/22 05:15:25;0.00;0.00;0.62;0.00;0.00;0.62;1.30;0.70;;;22.90;26.70;;;;;;2259455;61;20787;-69
2024/02/22 05:18:11;0.00;0.00;0.62;0.00;0.00;0.62;1.53;0.83;;;22.90;26.70;;;;;;2259572;61;20373;-69
2024/02/22 05:20:55;0.00;0.00;0.62;0.00;0.00;0.62;1.50;0.80;;;22.90;26.70;;;;;;2255934;61;20793;-69
2024/02/22 05:23:40;0.00;0.00;0.62;0.00;0.00;0.62;1.30;0.70;;;22.90;26.70;;;;;;2259474;61;20823;-69
2024/02/22 05:26:24;0.00;0.00;0.62;0.00;0.00;0.62;1.43;0.67;;;22.90;26.70;;;;;;2259317;61;20428;-69
2024/02/22 05:29:10;0.00;0.00;0.62;0.00;0.00;0.62;1.30;0.70;;;22.90;26.70;;;;;;2259557;61;20373;-68
2024/02/22 05:31:58;0.00;0.00;0.62;0.00;0.00;0.62;1.40;0.70;;;22.90;26.70;;;;;;2260014;61;20551;-68
2024/02/22 05:34:43;0.00;0.00;0.62;0.00;0.00;0.62;1.80;0.90;;;22.90;26.70;;;;;;2259395;61;20423;-67
2024/02/22 05:37:28;0.00;0.00;0.62;0.00;0.00;0.62;1.30;0.60;;;22.90;26.70;;;;;;2258995;61;20415;-68
2024/02/22 05:40:12;0.00;0.00;0.62;0.00;0.00;0.62;1.37;0.73;;;22.90;26.70;;;;;;2259563;61;20439;-67
2024/02/22 05:42:58;0.00;0.00;0.62;0.00;0.00;0.62;1.57;0.90;;;22.90;26.70;;;;;;2259072;61;20412;-68
2024/02/22 05:45:45;0.00;0.00;0.62;0.00;0.00;0.62;1.50;1.00;;;22.90;26.70;;;;;;2259140;61;20804;-68
2024/02/22 05:48:29;0.00;0.00;0.62;0.00;0.00;0.62;1.40;0.70;;;22.90;26.70;;;;;;2263480;61;20837;-67
2024/02/22 05:51:14;0.00;0.00;0.62;0.00;0.00;0.62;1.40;0.70;;;22.90;26.70;;;;;;2263406;61;20879;-67
2024/02/22 05:53:59;0.00;0.00;0.62;0.00;0.00;0.62;1.27;0.63;;;22.90;26.70;;;;;;2263391;61;20388;-70
2024/02/22 05:56:43;0.00;0.00;0.62;0.00;0.00;0.62;1.30;0.70;;;22.90;26.70;;;;;;2263319;61;20379;-69
2024/02/22 05:59:28;0.00;0.00;0.62;0.00;0.00;0.62;1.20;0.60;;;22.90;26.70;;;;;;2263160;61;20514;-69
2024/02/22 06:02:14;0.00;0.00;0.62;0.00;0.00;0.62;1.70;0.90;;;22.90;26.70;;;;;;2263574;61;20384;-68
2024/02/22 06:04:59;0.00;0.00;0.62;0.00;0.00;0.62;1.37;0.70;;;22.90;26.80;;;;;;2262977;61;20368;-68
2024/02/22 06:07:43;0.00;0.00;0.62;0.00;0.00;0.62;1.20;0.60;;;22.90;26.70;;;;;;2259773;61;20466;-69
2024/02/22 06:10:28;0.00;0.00;0.62;0.00;0.00;0.62;1.30;0.70;;;22.90;26.70;;;;;;2260084;61;20410;-69
2024/02/22 06:13:13;0.00;0.00;0.62;0.00;0.00;0.62;1.30;0.70;;;22.90;26.80;;;;;;2259216;61;20527;-68
2024/02/22 06:15:58;0.00;0.00;0.62;0.00;0.00;0.62;1.47;0.70;;;22.90;26.70;;;;;;2259291;61;20455;-68
2024/02/22 06:18:44;0.00;0.00;0.62;0.00;0.00;0.62;1.40;0.77;;;22.90;26.70;;;;;;2259158;61;20369;-69
2024/02/22 06:21:29;0.00;0.00;0.62;0.00;0.00;0.62;1.30;0.70;;;22.90;26.80;;;;;;2258982;61;20967;-69
2024/02/22 06:24:14;0.00;0.00;0.62;0.00;0.00;0.62;1.30;0.70;;;22.90;26.80;;;;;;2259459;61;20432;-68
2024/02/22 06:26:58;0.00;0.00;0.62;0.00;0.00;0.62;1.53;0.80;;;22.90;26.80;;;;;;2258787;61;20516;-69
2024/02/22 06:29:43;0.00;0.00;0.62;0.00;0.00;0.62;1.40;0.70;;;22.90;26.80;;;;;;2258480;61;20368;-69
2024/02/22 06:32:27;0.00;0.00;0.62;0.00;0.00;0.62;1.27;0.60;;;22.90;26.80;;;;;;2259203;61;20423;-68
2024/02/22 06:35:13;0.00;0.00;0.62;0.00;0.00;0.62;1.40;0.80;;;22.90;26.80;;;;;;2259027;61;20889;-69
2024/02/22 06:37:58;0.00;0.00;0.62;0.00;0.00;0.62;1.40;0.70;;;22.90;26.80;;;;;;2259159;61;20438;-68
2024/02/22 06:40:51;0.00;0.00;0.62;0.00;0.00;0.62;1.40;0.80;;;22.90;26.80;;;;;;2259213;61;20367;-69
2024/02/22 06:43:36;0.00;0.00;0.62;0.00;0.00;0.62;1.27;0.63;;;22.90;26.80;;;;;;2258925;61;20357;-69
2024/02/22 06:46:24;0.00;0.00;0.62;0.00;0.00;0.62;1.50;0.70;;;22.90;26.80;;;;;;2259200;61;20855;-69
2024/02/22 06:49:08;0.00;0.00;0.62;0.00;0.00;0.62;1.40;0.70;;;22.90;26.80;;;;;;2263050;61;20406;-70
2024/02/22 06:51:54;0.00;0.00;0.62;0.00;0.00;0.62;1.30;0.60;;;22.90;26.80;;;;;;2263194;61;20395;-68
2024/02/22 06:54:39;0.00;0.00;0.62;0.00;0.00;0.62;1.30;0.70;;;22.90;26.80;;;;;;2257216;61;20903;-68
2024/02/22 06:57:24;0.00;0.00;0.62;0.00;0.00;0.62;1.37;0.67;;;22.90;26.80;;;;;;2262895;61;20357;-68
2024/02/22 07:00:13;0.00;0.00;0.62;0.00;0.00;0.62;1.30;0.70;;;22.90;26.80;;;;;;2263280;61;20364;-68
2024/02/22 07:02:58;0.00;0.00;0.62;0.00;0.00;0.62;1.47;0.70;;;22.90;26.80;;;;;;2262983;61;20453;-68
2024/02/22 07:05:43;0.00;0.00;0.62;0.00;0.00;0.62;1.33;0.70;;;22.90;26.80;;;;;;2262772;61;20359;-69
2024/02/22 07:08:29;0.00;0.00;0.62;0.00;0.00;0.62;1.30;0.67;;;22.90;26.80;;;;;;2263319;61;20364;-68
2024/02/22 07:11:14;0.00;0.00;0.62;0.00;0.00;0.62;1.50;0.73;;;22.90;26.80;;;;;;2262332;61;20367;-68
2024/02/22 07:13:59;0.00;0.00;0.62;0.00;0.00;0.62;1.30;0.70;;;22.90;26.80;;;;;;2259184;61;20369;-68
2024/02/22 07:16:46;0.00;0.00;0.62;0.00;0.00;0.62;1.50;0.80;;;22.90;26.80;;;;;;2259133;61;20884;-68
2024/02/22 07:19:30;0.00;0.00;0.62;0.00;0.00;0.62;1.30;0.70;;;22.90;26.80;;;;;;2258776;61;20453;-68
2024/02/22 07:22:15;0.00;0.00;0.62;0.00;0.00;0.62;1.43;0.70;;;22.90;26.80;;;;;;2259785;61;20439;-68
2024/02/22 07:25:01;0.00;0.00;0.62;0.00;0.00;0.62;1.87;1.23;;;22.90;26.80;;;;;;2256595;61;20847;-68
2024/02/22 07:27:45;0.00;0.00;0.62;0.00;0.00;0.62;2.77;1.80;;;22.90;26.80;;;;;;2259388;61;20388;-68
2024/02/22 07:30:31;0.00;0.00;0.62;0.00;0.00;0.62;5.20;3.37;;;22.90;27.30;;;;;;2260046;61;20826;-68
2024/02/22 07:33:16;0.00;0.00;0.62;0.00;0.00;0.62;3.73;3.17;;;22.90;26.70;;;;;;2258783;61;20380;-68
2024/02/22 07:36:01;0.00;0.00;0.62;0.00;0.00;0.62;4.80;3.80;;;22.90;26.80;;;;;;2527228;53;20901;-68
2024/02/22 07:38:48;0.00;0.00;0.62;0.00;0.00;0.62;5.77;4.33;;;22.90;26.80;;;;;;2255845;61;20361;-68
2024/02/22 07:41:34;0.00;0.00;0.62;0.00;0.00;0.62;6.47;4.80;;;23.00;26.80;;;;;;2255446;61;20940;-68
2024/02/22 07:44:19;0.00;0.00;0.62;0.00;0.00;0.62;5.43;4.13;;;22.90;26.80;;;;;;2255782;61;20389;-69
2024/02/22 07:47:04;0.00;0.00;0.62;0.00;0.00;0.62;6.57;4.87;;;22.90;26.80;;;;;;2258852;61;20431;-67
2024/02/22 07:49:48;0.00;0.00;0.62;0.00;0.00;0.62;4.97;4.10;;;22.90;26.80;;;;;;2263682;61;20356;-68
2024/02/22 07:52:33;0.00;0.00;0.62;0.00;0.00;0.62;5.10;4.30;;;22.90;26.80;;;;;;2263908;61;20418;-68
2024/02/22 07:55:18;0.00;0.00;0.62;0.00;0.00;0.62;5.00;4.50;;;22.90;26.80;;;;;;2263728;61;20364;-68
2024/02/22 07:58:04;0.00;0.00;0.62;0.00;0.00;0.62;5.27;4.10;;;22.90;26.80;;;;;;2263517;61;20405;-68
2024/02/22 08:00:49;0.00;0.00;0.62;0.00;0.00;0.62;5.13;4.23;;;22.90;26.80;;;;;;2263810;61;20371;-68
2024/02/22 08:03:33;0.00;0.00;0.62;0.00;0.00;0.62;4.93;3.83;;;22.90;26.80;;;;;;2260249;61;20377;-68
2024/02/22 08:06:18;0.00;0.00;0.62;0.00;0.00;0.62;6.00;4.20;;;22.90;26.80;;;;;;2263468;61;20376;-68
2024/02/22 08:09:03;0.00;0.00;0.62;0.00;0.00;0.62;4.53;3.57;;;22.90;26.80;;;;;;2263966;61;20420;-68
2024/02/22 08:11:48;0.00;0.00;0.62;0.00;0.00;0.62;4.67;3.60;;;22.90;26.80;;;;;;2261921;61;20806;-68
2024/02/22 08:14:34;0.00;0.00;0.62;0.00;0.00;0.62;6.53;4.27;;;22.90;26.80;;;;;;2259905;61;20782;-68
2024/02/22 08:17:19;0.00;0.00;0.62;0.00;0.00;0.62;4.90;4.17;;;22.90;26.80;;;;;;2259390;61;20955;-67
2024/02/22 08:20:06;0.00;0.00;0.62;0.00;0.00;0.62;5.43;4.10;;;22.90;26.90;;;;;;2259303;61;20365;-68
2024/02/22 08:22:51;0.00;0.00;0.62;0.00;0.00;0.62;5.80;4.10;;;22.90;26.90;;;;;;2259741;61;20432;-68
2024/02/22 08:25:36;0.00;0.00;0.62;0.00;0.00;0.62;5.70;4.00;;;22.90;26.90;;;;;;2259363;61;20380;-68
2024/02/22 08:28:23;0.00;0.00;0.62;0.00;0.00;0.62;4.73;3.90;;;22.90;26.90;;;;;;2259588;61;20411;-68
2024/02/22 08:31:11;0.00;0.00;0.62;0.00;0.00;0.62;7.10;4.53;;;22.90;26.90;;;;;;2259737;61;20924;-68
2024/02/22 08:33:56;0.00;0.00;0.62;0.00;0.00;0.62;5.03;4.43;;;22.90;26.90;;;;;;2259143;61;20396;-68
2024/02/22 08:36:40;0.00;0.00;0.62;0.00;0.00;0.62;5.83;4.10;;;23.00;26.90;;;;;;2259494;61;20397;-68
2024/02/22 08:39:25;0.00;0.00;0.62;0.00;0.00;0.62;5.80;4.30;;;22.90;26.90;;;;;;2259353;61;20503;-68
2024/02/22 08:42:10;0.00;0.00;0.62;0.00;0.00;0.62;6.40;4.57;;;22.90;26.90;;;;;;2259355;61;20400;-68
2024/02/22 08:44:55;0.00;0.00;0.62;0.00;0.00;0.62;4.97;4.30;;;22.90;26.90;;;;;;2259428;61;20429;-68
2024/02/22 08:47:41;0.00;0.00;0.62;0.00;0.00;0.62;6.30;4.53;;;22.90;26.90;;;;;;2261757;61;20395;-68
2024/02/22 08:50:26;0.00;0.00;0.62;0.00;0.00;0.62;5.47;4.10;;;22.90;26.90;;;;;;2263566;61;20884;-68
2024/02/22 08:53:11;0.00;0.00;0.62;0.00;0.00;0.62;5.47;4.23;;;22.90;26.90;;;;;;2263589;61;20385;-68
2024/02/22 08:55:55;0.00;0.00;0.62;0.00;0.00;0.62;4.37;3.30;;;22.90;26.90;;;;;;2263076;61;20368;-68
2024/02/22 08:58:42;0.00;0.00;0.62;0.00;0.00;0.62;4.60;3.90;;;23.00;27.00;;;;;;2263605;61;20372;-68
2024/02/22 09:01:26;0.00;0.00;0.62;0.00;0.00;0.62;5.80;3.67;;;22.90;26.90;;;;;;2263399;61;20383;-68
2024/02/22 09:04:13;0.00;0.00;0.62;0.00;0.00;0.62;4.63;3.53;;;22.90;27.00;;;;;;2263361;61;20405;-68
2024/02/22 09:06:58;0.00;0.00;0.62;0.00;0.00;0.62;4.60;3.60;;;22.90;26.90;;;;;;2263397;61;20430;-69
2024/02/22 09:09:44;0.00;0.00;0.62;0.00;0.00;0.62;6.80;4.87;;;22.90;26.90;;;;;;2260111;61;20422;-69
2024/02/22 09:12:29;0.00;0.00;0.62;0.00;0.00;0.62;5.10;3.60;;;23.00;27.00;;;;;;2260716;61;20404;-68
2024/02/22 09:15:14;0.00;0.00;0.62;0.00;0.00;0.62;5.00;4.00;;;22.90;26.90;;;;;;2259718;61;20372;-68
2024/02/22 09:17:59;0.00;0.00;0.62;0.00;0.00;0.62;5.50;4.43;;;22.90;26.90;;;;;;2259219;61;20419;-68
2024/02/22 09:20:46;0.00;0.00;0.62;0.00;0.00;0.62;5.47;3.60;;;23.00;27.00;;;;;;2259617;61;20391;-68
2024/02/22 09:23:31;0.00;0.00;0.62;0.00;0.00;0.62;3.63;2.90;;;22.90;27.00;;;;;;2259330;61;20968;-68
2024/02/22 09:26:15;0.00;0.00;0.62;0.00;0.00;0.62;4.40;3.70;;;22.90;26.90;;;;;;2259016;61;20955;-68
2024/02/22 09:29:00;0.00;0.00;0.62;0.00;0.00;0.62;3.70;2.90;;;23.00;27.00;;;;;;2259589;61;20377;-68
2024/02/22 09:31:44;0.00;0.00;0.62;0.00;0.00;0.62;5.27;3.50;;;22.90;27.00;;;;;;2259359;61;20970;-68
2024/02/22 09:34:30;0.00;0.00;0.62;0.00;0.00;0.62;3.60;3.20;;;22.90;27.00;;;;;;2259383;61;20911;-68
2024/02/22 09:37:15;0.00;0.00;0.62;0.00;0.00;0.62;3.73;2.60;;;23.00;27.00;;;;;;2259354;61;20380;-67
2024/02/22 09:40:00;0.00;0.00;0.62;0.00;0.00;0.62;3.97;3.57;;;22.90;27.00;;;;;;2259282;61;20369;-68
2024/02/22 09:42:45;0.00;0.00;0.62;0.00;0.00;0.62;4.47;3.13;;;23.00;27.00;;;;;;2259343;61;20438;-68
2024/02/22 09:45:29;0.00;0.00;0.62;0.00;0.00;0.62;4.40;3.13;;;23.00;27.00;;;;;;2259313;61;20369;-68
2024/02/22 09:48:15;0.00;0.00;0.62;0.00;0.00;0.62;3.23;2.57;;;23.00;27.00;;;;;;2262809;61;20383;-68
2024/02/22 09:51:01;0.00;0.00;0.62;0.00;0.00;0.62;4.77;3.00;;;23.00;27.00;;;;;;2260298;61;20414;-68
2024/02/22 09:53:46;0.00;0.00;0.62;0.00;0.00;0.62;3.57;2.97;;;23.00;27.00;;;;;;2263154;61;20429;-68
2024/02/22 09:56:33;0.00;0.00;0.62;0.00;0.00;0.62;3.60;2.60;;;23.00;27.10;;;;;;2263230;61;20424;-69
2024/02/22 09:59:19;0.00;0.00;0.62;0.00;0.00;0.62;3.70;2.77;;;23.00;27.00;;;;;;2263714;61;20376;-69
2024/02/22 10:02:06;0.00;0.00;0.62;0.00;0.00;0.62;3.23;2.70;;;23.00;27.10;;;;;;2262829;61;20448;-68
2024/02/22 10:04:51;0.00;0.00;0.62;0.00;0.00;0.62;4.30;2.80;;;23.00;27.10;;;;;;2263238;61;20832;-68
2024/02/22 10:07:37;0.00;0.00;0.62;0.00;0.00;0.62;3.03;2.40;;;23.00;27.10;;;;;;2263278;61;21172;-68
2024/02/22 10:10:26;0.00;0.00;0.62;0.00;0.00;0.62;3.63;2.63;;;23.00;27.00;;;;;;2259932;61;20376;-68
2024/02/22 10:13:20;0.00;0.00;0.62;0.00;0.00;0.62;3.60;2.80;;;23.00;27.10;;;;;;2259752;61;20983;-68
2024/02/22 10:16:12;0.00;0.00;0.62;0.00;0.00;0.62;4.27;3.10;;;23.00;27.10;;;;;;2258862;61;20469;-68
2024/02/22 10:19:00;0.00;0.00;0.62;0.00;0.00;0.62;3.60;2.70;;;23.00;27.10;;;;;;2259153;61;20349;-69
2024/02/22 10:21:46;0.00;0.00;0.62;0.00;0.00;0.62;3.97;2.97;;;23.00;27.10;;;;;;2259356;61;20419;-68
2024/02/22 10:24:30;0.00;0.00;0.62;0.00;0.00;0.62;3.43;2.80;;;23.00;27.10;;;;;;2558764;45;20415;-68
2024/02/22 10:27:16;0.00;0.00;0.62;0.00;0.00;0.62;3.43;2.83;;;23.00;27.10;;;;;;2259408;61;20397;-68
2024/02/22 10:30:06;0.00;0.00;0.62;0.00;0.00;0.62;2.90;2.50;;;23.00;27.10;;;;;;2259321;61;20400;-68
2024/02/22 10:32:55;0.00;0.00;0.62;0.00;0.00;0.62;3.60;2.70;;;23.00;27.10;;;;;;2259205;61;20830;-68
2024/02/22 10:35:44;0.00;0.00;0.62;0.00;0.00;0.62;3.27;2.60;;;23.00;27.10;;;;;;2259276;61;20369;-68
2024/02/22 10:38:30;0.00;0.00;0.62;0.00;0.00;0.62;3.50;2.83;;;23.10;27.20;;;;;;2259222;61;20903;-68
2024/02/22 10:41:14;0.00;0.00;0.62;0.00;0.00;0.62;3.60;2.70;;;23.00;27.10;;;;;;2259079;61;20396;-68
2024/02/22 10:44:02;0.00;0.00;0.62;0.00;0.00;0.62;3.47;2.70;;;23.10;27.20;;;;;;2259396;61;20392;-68
2024/02/22 10:46:49;0.00;0.00;0.62;0.00;0.00;0.62;3.53;2.63;;;23.10;27.20;;;;;;2259886;61;20797;-69
2024/02/22 10:49:35;0.00;0.00;0.62;0.00;0.00;0.62;3.93;2.87;;;23.10;27.20;;;;;;2263341;61;20470;-69
2024/02/22 10:52:22;0.00;0.00;0.62;0.00;0.00;0.62;2.97;2.20;;;23.10;27.70;;;;;;2262961;61;20379;-68